sensor_id;sensor_type;location;lat;lon;timestamp;pressure;altitude;pressure_sealevel;temperature;humidity
82949;BME280;72736;50.236;18.876;2024-01-27T00:00:46;99115.06;;;4.43;78.03
82949;BME280;72736;50.236;18.876;2024-01-27T00:05:52;99128.66;;;4.43;77.52
82949;BME280;72736;50.236;18.876;2024-01-27T00:10:58;99150.80;;;4.41;76.86
82949;BME280;72736;50.236;18.876;2024-01-27T00:16:05;99155.78;;;4.41;76.64
82949;BME280;72736;50.236;18.876;2024-01-27T00:21:11;99160.05;;;4.41;75.83
82949;BME280;72736;50.236;18.876;2024-01-27T00:26:16;99170.34;;;4.39;75.31
82949;BME280;72736;50.236;18.876;2024-01-27T00:31:22;99178.48;;;4.39;75.25
82949;BME280;72736;50.236;18.876;2024-01-27T00:36:28;99185.33;;;4.38;74.78
82949;BME280;72736;50.236;18.876;2024-01-27T00:41:34;99191.63;;;4.37;74.34
82949;BME280;72736;50.236;18.876;2024-01-27T00:46:40;99197.26;;;4.37;74.07
82949;BME280;72736;50.236;18.876;2024-01-27T00:51:45;99210.75;;;4.36;73.65
82949;BME280;72736;50.236;18.876;2024-01-27T00:56:51;99224.24;;;4.36;73.86
82949;BME280;72736;50.236;18.876;2024-01-27T01:01:57;99235.81;;;4.37;74.19
82949;BME280;72736;50.236;18.876;2024-01-27T01:07:02;99244.60;;;4.36;73.95
82949;BME280;72736;50.236;18.876;2024-01-27T01:12:08;99242.84;;;4.35;74.10
82949;BME280;72736;50.236;18.876;2024-01-27T01:17:14;99245.52;;;4.35;73.79
82949;BME280;72736;50.236;18.876;2024-01-27T01:22:20;99259.89;;;4.33;73.29
82949;BME280;72736;50.236;18.876;2024-01-27T01:27:25;99273.67;;;4.31;72.89
82949;BME280;72736;50.236;18.876;2024-01-27T01:32:31;99270.55;;;4.29;72.58
82949;BME280;72736;50.236;18.876;2024-01-27T01:37:37;99267.89;;;4.29;72.51
82949;BME280;72736;50.236;18.876;2024-01-27T01:42:43;99270.28;;;4.28;72.31
82949;BME280;72736;50.236;18.876;2024-01-27T01:47:55;99267.84;;;4.28;72.28
82949;BME280;72736;50.236;18.876;2024-01-27T01:53:02;99266.52;;;4.27;72.31
82949;BME280;72736;50.236;18.876;2024-01-27T01:58:08;99272.82;;;4.26;71.99
82949;BME280;72736;50.236;18.876;2024-01-27T02:03:14;99266.68;;;4.24;71.91
82949;BME280;72736;50.236;18.876;2024-01-27T02:08:20;99271.02;;;4.23;71.88
82949;BME280;72736;50.236;18.876;2024-01-27T02:13:25;99273.04;;;4.22;71.87
82949;BME280;72736;50.236;18.876;2024-01-27T02:18:32;99270.42;;;4.21;71.60
82949;BME280;72736;50.236;18.876;2024-01-27T02:23:37;99279.63;;;4.19;72.00
82949;BME280;72736;50.236;18.876;2024-01-27T02:28:43;99276.67;;;4.18;71.98
82949;BME280;72736;50.236;18.876;2024-01-27T02:33:49;99277.17;;;4.19;71.61
82949;BME280;72736;50.236;18.876;2024-01-27T02:38:55;99277.84;;;4.18;71.28
82949;BME280;72736;50.236;18.876;2024-01-27T02:44:00;99268.69;;;4.16;71.28
82949;BME280;72736;50.236;18.876;2024-01-27T02:49:06;99269.07;;;4.14;71.17
82949;BME280;72736;50.236;18.876;2024-01-27T02:54:12;99279.75;;;4.13;71.16
82949;BME280;72736;50.236;18.876;2024-01-27T02:59:18;99287.30;;;4.11;71.05
82949;BME280;72736;50.236;18.876;2024-01-27T03:04:24;99292.50;;;4.10;70.77
82949;BME280;72736;50.236;18.876;2024-01-27T03:09:30;99298.70;;;4.10;70.51
82949;BME280;72736;50.236;18.876;2024-01-27T03:14:36;99311.75;;;4.09;70.30
82949;BME280;72736;50.236;18.876;2024-01-27T03:19:41;99325.44;;;4.05;71.73
82949;BME280;72736;50.236;18.876;2024-01-27T03:24:50;99335.52;;;3.98;72.37
82949;BME280;72736;50.236;18.876;2024-01-27T03:30:02;99335.26;;;3.90;72.53
82949;BME280;72736;50.236;18.876;2024-01-27T03:35:08;99339.43;;;3.88;72.47
82949;BME280;72736;50.236;18.876;2024-01-27T03:40:15;99353.53;;;3.85;72.38
82949;BME280;72736;50.236;18.876;2024-01-27T03:45:20;99350.61;;;3.84;72.50
82949;BME280;72736;50.236;18.876;2024-01-27T03:50:26;99354.98;;;3.85;72.13
82949;BME280;72736;50.236;18.876;2024-01-27T03:55:31;99353.94;;;3.84;71.99
82949;BME280;72736;50.236;18.876;2024-01-27T04:00:38;99351.16;;;3.84;71.48
82949;BME280;72736;50.236;18.876;2024-01-27T04:05:48;99363.65;;;3.81;71.77
82949;BME280;72736;50.236;18.876;2024-01-27T04:10:54;99362.67;;;3.79;71.85
82949;BME280;72736;50.236;18.876;2024-01-27T04:16:00;99362.99;;;3.75;71.90
82949;BME280;72736;50.236;18.876;2024-01-27T04:21:05;99372.55;;;3.73;71.43
82949;BME280;72736;50.236;18.876;2024-01-27T04:26:11;99376.43;;;3.71;71.03
82949;BME280;72736;50.236;18.876;2024-01-27T04:31:16;99385.45;;;3.71;70.94
82949;BME280;72736;50.236;18.876;2024-01-27T04:36:29;99385.55;;;3.70;70.27
82949;BME280;72736;50.236;18.876;2024-01-27T04:41:35;99393.25;;;3.69;70.16
82949;BME280;72736;50.236;18.876;2024-01-27T04:46:46;99389.55;;;3.67;69.94
82949;BME280;72736;50.236;18.876;2024-01-27T04:51:52;99408.27;;;3.68;69.74
82949;BME280;72736;50.236;18.876;2024-01-27T04:56:58;99412.34;;;3.68;69.40
82949;BME280;72736;50.236;18.876;2024-01-27T05:02:04;99415.81;;;3.66;69.27
82949;BME280;72736;50.236;18.876;2024-01-27T05:07:09;99421.56;;;3.65;69.26
82949;BME280;72736;50.236;18.876;2024-01-27T05:12:15;99414.70;;;3.65;69.29
82949;BME280;72736;50.236;18.876;2024-01-27T05:17:21;99425.29;;;3.64;68.94
82949;BME280;72736;50.236;18.876;2024-01-27T05:22:27;99425.42;;;3.64;68.86
82949;BME280;72736;50.236;18.876;2024-01-27T05:27:32;99428.96;;;3.64;68.66
82949;BME280;72736;50.236;18.876;2024-01-27T05:32:38;99431.84;;;3.62;68.50
82949;BME280;72736;50.236;18.876;2024-01-27T05:37:44;99426.70;;;3.62;68.22
82949;BME280;72736;50.236;18.876;2024-01-27T05:42:49;99430.10;;;3.62;68.19
82949;BME280;72736;50.236;18.876;2024-01-27T05:47:55;99427.27;;;3.62;68.00
82949;BME280;72736;50.236;18.876;2024-01-27T05:53:01;99422.08;;;3.62;67.67
82949;BME280;72736;50.236;18.876;2024-01-27T05:58:07;99425.80;;;3.60;67.80
82949;BME280;72736;50.236;18.876;2024-01-27T06:03:12;99426.02;;;3.60;67.75
82949;BME280;72736;50.236;18.876;2024-01-27T06:08:18;99429.50;;;3.59;67.42
82949;BME280;72736;50.236;18.876;2024-01-27T06:13:24;99431.81;;;3.57;67.18
82949;BME280;72736;50.236;18.876;2024-01-27T06:18:30;99436.65;;;3.54;67.04
82949;BME280;72736;50.236;18.876;2024-01-27T06:23:35;99442.74;;;3.53;67.16
82949;BME280;72736;50.236;18.876;2024-01-27T06:28:41;99452.28;;;3.53;66.79
82949;BME280;72736;50.236;18.876;2024-01-27T06:33:47;99459.30;;;3.53;66.54
82949;BME280;72736;50.236;18.876;2024-01-27T06:38:53;99458.90;;;3.53;66.33
82949;BME280;72736;50.236;18.876;2024-01-27T06:43:59;99467.20;;;3.51;66.51
82949;BME280;72736;50.236;18.876;2024-01-27T06:49:05;99468.14;;;3.52;66.48
82949;BME280;72736;50.236;18.876;2024-01-27T06:54:11;99474.80;;;3.53;66.38
82949;BME280;72736;50.236;18.876;2024-01-27T06:59:16;99482.25;;;3.54;66.56
82949;BME280;72736;50.236;18.876;2024-01-27T07:04:22;99482.85;;;3.53;66.20
82949;BME280;72736;50.236;18.876;2024-01-27T07:09:28;99482.77;;;3.51;65.95
82949;BME280;72736;50.236;18.876;2024-01-27T07:14:34;99491.90;;;3.51;65.83
82949;BME280;72736;50.236;18.876;2024-01-27T07:19:40;99500.42;;;3.52;65.63
82949;BME280;72736;50.236;18.876;2024-01-27T07:24:46;99494.10;;;3.54;65.58
82949;BME280;72736;50.236;18.876;2024-01-27T07:29:54;99497.88;;;3.55;65.42
82949;BME280;72736;50.236;18.876;2024-01-27T07:35:01;99488.07;;;3.54;65.30
82949;BME280;72736;50.236;18.876;2024-01-27T07:40:11;99492.89;;;3.55;65.26
82949;BME280;72736;50.236;18.876;2024-01-27T07:45:17;99489.04;;;3.57;65.10
82949;BME280;72736;50.236;18.876;2024-01-27T07:50:23;99494.97;;;3.57;64.88
82949;BME280;72736;50.236;18.876;2024-01-27T07:55:28;99496.27;;;3.59;64.88
82949;BME280;72736;50.236;18.876;2024-01-27T08:00:34;99498.96;;;3.62;64.92
82949;BME280;72736;50.236;18.876;2024-01-27T08:05:40;99503.53;;;3.65;64.75
82949;BME280;72736;50.236;18.876;2024-01-27T08:10:46;99515.38;;;3.65;64.47
82949;BME280;72736;50.236;18.876;2024-01-27T08:15:52;99516.96;;;3.64;64.34
82949;BME280;72736;50.236;18.876;2024-01-27T08:20:58;99510.44;;;3.62;64.55
82949;BME280;72736;50.236;18.876;2024-01-27T08:26:04;99507.82;;;3.60;64.48
82949;BME280;72736;50.236;18.876;2024-01-27T08:31:11;99511.89;;;3.58;64.58
82949;BME280;72736;50.236;18.876;2024-01-27T08:36:15;99505.60;;;3.59;64.58
82949;BME280;72736;50.236;18.876;2024-01-27T08:41:21;99502.15;;;3.58;64.72
82949;BME280;72736;50.236;18.876;2024-01-27T08:46:31;99509.16;;;3.57;65.40
82949;BME280;72736;50.236;18.876;2024-01-27T08:51:37;99516.80;;;3.56;65.81
82949;BME280;72736;50.236;18.876;2024-01-27T08:56:43;99522.95;;;3.53;66.64
82949;BME280;72736;50.236;18.876;2024-01-27T09:01:49;99526.05;;;3.44;67.43
82949;BME280;72736;50.236;18.876;2024-01-27T09:06:55;99525.01;;;3.34;68.35
82949;BME280;72736;50.236;18.876;2024-01-27T09:12:01;99530.48;;;3.23;69.37
82949;BME280;72736;50.236;18.876;2024-01-27T09:17:07;99537.83;;;3.19;69.95
82949;BME280;72736;50.236;18.876;2024-01-27T09:22:13;99545.16;;;3.18;70.91
82949;BME280;72736;50.236;18.876;2024-01-27T09:27:18;99547.31;;;3.17;71.16
82949;BME280;72736;50.236;18.876;2024-01-27T09:32:24;99548.01;;;3.14;71.51
82949;BME280;72736;50.236;18.876;2024-01-27T09:37:29;99544.94;;;3.11;72.42
82949;BME280;72736;50.236;18.876;2024-01-27T09:42:37;99542.45;;;3.07;72.78
82949;BME280;72736;50.236;18.876;2024-01-27T09:47:44;99540.58;;;3.05;73.43
82949;BME280;72736;50.236;18.876;2024-01-27T09:52:51;99535.86;;;3.07;73.43
82949;BME280;72736;50.236;18.876;2024-01-27T09:57:56;99534.28;;;3.04;73.67
82949;BME280;72736;50.236;18.876;2024-01-27T10:03:02;99529.27;;;3.03;74.01
82949;BME280;72736;50.236;18.876;2024-01-27T10:08:09;99531.51;;;3.02;74.41
82949;BME280;72736;50.236;18.876;2024-01-27T10:13:16;99522.15;;;3.02;74.46
82949;BME280;72736;50.236;18.876;2024-01-27T10:18:22;99520.50;;;3.03;74.22
82949;BME280;72736;50.236;18.876;2024-01-27T10:23:28;99523.80;;;3.05;74.24
82949;BME280;72736;50.236;18.876;2024-01-27T10:28:34;99519.83;;;3.08;74.32
82949;BME280;72736;50.236;18.876;2024-01-27T10:33:39;99521.18;;;3.12;73.94
82949;BME280;72736;50.236;18.876;2024-01-27T10:38:45;99524.95;;;3.17;73.81
82949;BME280;72736;50.236;18.876;2024-01-27T10:43:51;99526.70;;;3.22;73.24
82949;BME280;72736;50.236;18.876;2024-01-27T10:49:00;99535.77;;;3.25;73.01
82949;BME280;72736;50.236;18.876;2024-01-27T10:54:08;99538.40;;;3.27;72.59
82949;BME280;72736;50.236;18.876;2024-01-27T10:59:17;99528.02;;;3.28;72.90
82949;BME280;72736;50.236;18.876;2024-01-27T11:04:26;99531.91;;;3.30;72.89
82949;BME280;72736;50.236;18.876;2024-01-27T11:09:36;99531.67;;;3.33;72.68
82949;BME280;72736;50.236;18.876;2024-01-27T11:14:42;99541.14;;;3.35;72.56
82949;BME280;72736;50.236;18.876;2024-01-27T11:19:50;99543.23;;;3.35;72.61
82949;BME280;72736;50.236;18.876;2024-01-27T11:25:07;99546.05;;;3.34;72.79
82949;BME280;72736;50.236;18.876;2024-01-27T11:30:28;99552.14;;;3.33;73.05
82949;BME280;72736;50.236;18.876;2024-01-27T11:35:34;99557.95;;;3.31;73.70
82949;BME280;72736;50.236;18.876;2024-01-27T11:40:47;99565.19;;;3.31;73.46
82949;BME280;72736;50.236;18.876;2024-01-27T11:45:58;99565.77;;;3.29;73.63
82949;BME280;72736;50.236;18.876;2024-01-27T11:51:10;99574.61;;;3.27;73.88
82949;BME280;72736;50.236;18.876;2024-01-27T11:56:16;99574.80;;;3.29;74.46
82949;BME280;72736;50.236;18.876;2024-01-27T12:01:22;99577.14;;;3.30;74.56
82949;BME280;72736;50.236;18.876;2024-01-27T12:06:29;99586.38;;;3.31;74.88
82949;BME280;72736;50.236;18.876;2024-01-27T12:11:35;99607.74;;;3.29;74.86
82949;BME280;72736;50.236;18.876;2024-01-27T12:16:42;99612.55;;;3.27;75.29
82949;BME280;72736;50.236;18.876;2024-01-27T12:21:51;99612.02;;;3.20;75.64
82949;BME280;72736;50.236;18.876;2024-01-27T12:26:57;99615.68;;;3.17;76.37
82949;BME280;72736;50.236;18.876;2024-01-27T12:32:03;99620.39;;;3.12;76.34
82949;BME280;72736;50.236;18.876;2024-01-27T12:37:12;99626.27;;;3.06;76.72
82949;BME280;72736;50.236;18.876;2024-01-27T12:42:18;99630.52;;;3.04;77.22
82949;BME280;72736;50.236;18.876;2024-01-27T12:47:24;99636.61;;;3.05;77.31
82949;BME280;72736;50.236;18.876;2024-01-27T12:52:30;99644.13;;;3.05;77.17
82949;BME280;72736;50.236;18.876;2024-01-27T12:57:35;99637.88;;;3.04;77.51
82949;BME280;72736;50.236;18.876;2024-01-27T13:02:42;99640.27;;;3.03;77.59
82949;BME280;72736;50.236;18.876;2024-01-27T13:07:47;99634.63;;;3.01;77.81
82949;BME280;72736;50.236;18.876;2024-01-27T13:12:53;99648.45;;;3.01;78.12
82949;BME280;72736;50.236;18.876;2024-01-27T13:17:59;99647.90;;;3.01;78.15
82949;BME280;72736;50.236;18.876;2024-01-27T13:23:05;99649.66;;;3.03;78.24
82949;BME280;72736;50.236;18.876;2024-01-27T13:28:11;99654.30;;;3.02;78.55
82949;BME280;72736;50.236;18.876;2024-01-27T13:33:18;99652.17;;;3.02;78.56
82949;BME280;72736;50.236;18.876;2024-01-27T13:38:24;99661.05;;;3.04;78.82
82949;BME280;72736;50.236;18.876;2024-01-27T13:43:31;99668.85;;;3.05;78.71
82949;BME280;72736;50.236;18.876;2024-01-27T13:48:36;99675.23;;;3.10;79.00
82949;BME280;72736;50.236;18.876;2024-01-27T13:53:42;99686.23;;;3.14;78.63
82949;BME280;72736;50.236;18.876;2024-01-27T13:58:52;99697.64;;;3.16;78.71
82949;BME280;72736;50.236;18.876;2024-01-27T14:03:56;99704.75;;;3.17;78.86
82949;BME280;72736;50.236;18.876;2024-01-27T14:09:02;99708.09;;;3.17;79.05
82949;BME280;72736;50.236;18.876;2024-01-27T14:14:08;99711.89;;;3.18;78.82
82949;BME280;72736;50.236;18.876;2024-01-27T14:19:14;99725.35;;;3.22;79.08
82949;BME280;72736;50.236;18.876;2024-01-27T14:24:20;99737.84;;;3.22;78.87
82949;BME280;72736;50.236;18.876;2024-01-27T14:29:26;99739.50;;;3.25;78.88
82949;BME280;72736;50.236;18.876;2024-01-27T14:34:31;99748.92;;;3.28;78.96
82949;BME280;72736;50.236;18.876;2024-01-27T14:39:37;99757.51;;;3.31;78.95
82949;BME280;72736;50.236;18.876;2024-01-27T14:44:46;99761.09;;;3.33;78.70
82949;BME280;72736;50.236;18.876;2024-01-27T14:49:54;99764.73;;;3.36;78.90
82949;BME280;72736;50.236;18.876;2024-01-27T15:01:18;99775.97;;;3.43;78.14
82949;BME280;72736;50.236;18.876;2024-01-27T15:06:24;99781.94;;;3.41;78.46
82949;BME280;72736;50.236;18.876;2024-01-27T15:11:30;99790.09;;;3.43;78.50
82949;BME280;72736;50.236;18.876;2024-01-27T15:16:36;99795.79;;;3.44;78.40
82949;BME280;72736;50.236;18.876;2024-01-27T15:21:42;99801.45;;;3.48;77.99
82949;BME280;72736;50.236;18.876;2024-01-27T15:26:47;99811.20;;;3.49;78.27
82949;BME280;72736;50.236;18.876;2024-01-27T15:31:56;99820.48;;;3.52;78.42
82949;BME280;72736;50.236;18.876;2024-01-27T15:37:02;99834.29;;;3.52;78.17
82949;BME280;72736;50.236;18.876;2024-01-27T15:42:08;99846.10;;;3.48;78.34
82949;BME280;72736;50.236;18.876;2024-01-27T15:47:13;99850.41;;;3.47;78.29
82949;BME280;72736;50.236;18.876;2024-01-27T15:52:19;99854.34;;;3.46;77.73
82949;BME280;72736;50.236;18.876;2024-01-27T15:57:25;99861.16;;;3.46;77.82
82949;BME280;72736;50.236;18.876;2024-01-27T16:02:32;99875.09;;;3.48;77.97
82949;BME280;72736;50.236;18.876;2024-01-27T16:07:37;99894.89;;;3.49;77.96
82949;BME280;72736;50.236;18.876;2024-01-27T16:12:43;99899.38;;;3.50;77.94
82949;BME280;72736;50.236;18.876;2024-01-27T16:17:49;99908.36;;;3.53;77.93
82949;BME280;72736;50.236;18.876;2024-01-27T16:22:55;99915.62;;;3.54;78.00
82949;BME280;72736;50.236;18.876;2024-01-27T16:28:01;99928.14;;;3.57;77.99
82949;BME280;72736;50.236;18.876;2024-01-27T16:33:07;99931.21;;;3.58;77.94
82949;BME280;72736;50.236;18.876;2024-01-27T16:38:13;99937.61;;;3.61;77.88
82949;BME280;72736;50.236;18.876;2024-01-27T16:43:18;99946.11;;;3.64;77.76
82949;BME280;72736;50.236;18.876;2024-01-27T16:48:24;99950.90;;;3.66;77.49
82949;BME280;72736;50.236;18.876;2024-01-27T16:53:30;99960.29;;;3.68;77.17
82949;BME280;72736;50.236;18.876;2024-01-27T16:58:38;99969.44;;;3.70;77.27
82949;BME280;72736;50.236;18.876;2024-01-27T17:03:45;99976.21;;;3.69;76.90
82949;BME280;72736;50.236;18.876;2024-01-27T17:08:51;99978.85;;;3.70;76.25
82949;BME280;72736;50.236;18.876;2024-01-27T17:13:57;99984.66;;;3.70;76.25
82949;BME280;72736;50.236;18.876;2024-01-27T17:19:04;99996.21;;;3.69;75.33
82949;BME280;72736;50.236;18.876;2024-01-27T17:24:10;100006.23;;;3.69;75.63
82949;BME280;72736;50.236;18.876;2024-01-27T17:29:16;100020.71;;;3.71;75.35
82949;BME280;72736;50.236;18.876;2024-01-27T17:34:22;100026.27;;;3.74;75.16
82949;BME280;72736;50.236;18.876;2024-01-27T17:39:29;100028.98;;;3.78;75.27
82949;BME280;72736;50.236;18.876;2024-01-27T17:44:34;100041.92;;;3.79;75.01
82949;BME280;72736;50.236;18.876;2024-01-27T17:49:40;100044.02;;;3.81;74.65
82949;BME280;72736;50.236;18.876;2024-01-27T17:54:46;100058.96;;;3.80;74.56
82949;BME280;72736;50.236;18.876;2024-01-27T17:59:52;100066.14;;;3.79;74.37
82949;BME280;72736;50.236;18.876;2024-01-27T18:05:00;100073.67;;;3.78;74.36
82949;BME280;72736;50.236;18.876;2024-01-27T18:10:07;100083.41;;;3.76;74.23
82949;BME280;72736;50.236;18.876;2024-01-27T18:15:13;100098.25;;;3.76;73.83
82949;BME280;72736;50.236;18.876;2024-01-27T18:20:19;100101.99;;;3.73;73.60
82949;BME280;72736;50.236;18.876;2024-01-27T18:25:25;100111.36;;;3.73;74.26
82949;BME280;72736;50.236;18.876;2024-01-27T18:30:31;100116.25;;;3.70;73.52
82949;BME280;72736;50.236;18.876;2024-01-27T18:35:36;100119.85;;;3.66;73.90
82949;BME280;72736;50.236;18.876;2024-01-27T18:40:42;100123.66;;;3.60;73.74
82949;BME280;72736;50.236;18.876;2024-01-27T18:45:48;100133.80;;;3.56;73.62
82949;BME280;72736;50.236;18.876;2024-01-27T18:50:53;100147.70;;;3.52;73.72
82949;BME280;72736;50.236;18.876;2024-01-27T18:55:59;100158.73;;;3.49;73.81
82949;BME280;72736;50.236;18.876;2024-01-27T19:01:05;100164.27;;;3.45;73.87
82949;BME280;72736;50.236;18.876;2024-01-27T19:06:11;100168.52;;;3.39;73.66
82949;BME280;72736;50.236;18.876;2024-01-27T19:11:17;100175.25;;;3.34;73.94
82949;BME280;72736;50.236;18.876;2024-01-27T19:16:23;100173.31;;;3.30;73.61
82949;BME280;72736;50.236;18.876;2024-01-27T19:21:28;100179.61;;;3.27;73.84
82949;BME280;72736;50.236;18.876;2024-01-27T19:26:34;100186.28;;;3.23;73.61
82949;BME280;72736;50.236;18.876;2024-01-27T19:31:40;100193.41;;;3.21;73.84
82949;BME280;72736;50.236;18.876;2024-01-27T19:36:49;100200.35;;;3.18;73.83
82949;BME280;72736;50.236;18.876;2024-01-27T19:41:54;100209.63;;;3.17;73.99
82949;BME280;72736;50.236;18.876;2024-01-27T19:47:00;100220.55;;;3.17;74.21
82949;BME280;72736;50.236;18.876;2024-01-27T19:52:09;100229.49;;;3.16;73.96
82949;BME280;72736;50.236;18.876;2024-01-27T19:57:15;100242.17;;;3.14;74.13
82949;BME280;72736;50.236;18.876;2024-01-27T20:02:21;100250.32;;;3.12;73.96
82949;BME280;72736;50.236;18.876;2024-01-27T20:07:27;100253.98;;;3.10;74.04
82949;BME280;72736;50.236;18.876;2024-01-27T20:12:35;100262.73;;;3.11;74.37
82949;BME280;72736;50.236;18.876;2024-01-27T20:17:42;100272.87;;;3.14;74.56
82949;BME280;72736;50.236;18.876;2024-01-27T20:22:49;100279.13;;;3.17;74.18
82949;BME280;72736;50.236;18.876;2024-01-27T20:27:57;100283.02;;;3.22;74.32
82949;BME280;72736;50.236;18.876;2024-01-27T20:33:03;100283.23;;;3.23;74.21
82949;BME280;72736;50.236;18.876;2024-01-27T20:38:09;100287.07;;;3.24;73.75
82949;BME280;72736;50.236;18.876;2024-01-27T20:43:15;100290.77;;;3.24;74.02
82949;BME280;72736;50.236;18.876;2024-01-27T20:48:21;100294.05;;;3.23;73.84
82949;BME280;72736;50.236;18.876;2024-01-27T20:53:27;100294.68;;;3.21;73.69
82949;BME280;72736;50.236;18.876;2024-01-27T20:58:33;100306.66;;;3.20;74.01
82949;BME280;72736;50.236;18.876;2024-01-27T21:03:41;100317.22;;;3.18;73.83
82949;BME280;72736;50.236;18.876;2024-01-27T21:08:47;100319.61;;;3.17;73.96
82949;BME280;72736;50.236;18.876;2024-01-27T21:13:53;100324.05;;;3.14;74.05
82949;BME280;72736;50.236;18.876;2024-01-27T21:18:58;100336.00;;;3.13;74.03
82949;BME280;72736;50.236;18.876;2024-01-27T21:24:06;100338.26;;;3.13;74.17
82949;BME280;72736;50.236;18.876;2024-01-27T21:29:13;100347.24;;;3.14;74.72
82949;BME280;72736;50.236;18.876;2024-01-27T21:34:18;100351.87;;;3.13;75.19
82949;BME280;72736;50.236;18.876;2024-01-27T21:39:24;100355.21;;;3.13;75.51
82949;BME280;72736;50.236;18.876;2024-01-27T21:44:30;100359.52;;;3.14;75.45
82949;BME280;72736;50.236;18.876;2024-01-27T21:49:39;100361.73;;;3.15;75.82
82949;BME280;72736;50.236;18.876;2024-01-27T21:54:44;100375.58;;;3.16;75.79
82949;BME280;72736;50.236;18.876;2024-01-27T21:59:50;100381.19;;;3.17;76.16
82949;BME280;72736;50.236;18.876;2024-01-27T22:04:56;100384.95;;;3.18;76.53
82949;BME280;72736;50.236;18.876;2024-01-27T22:10:02;100388.67;;;3.21;76.40
82949;BME280;72736;50.236;18.876;2024-01-27T22:15:09;100389.42;;;3.22;76.62
82949;BME280;72736;50.236;18.876;2024-01-27T22:20:15;100390.39;;;3.23;76.88
82949;BME280;72736;50.236;18.876;2024-01-27T22:25:21;100397.44;;;3.23;76.82
82949;BME280;72736;50.236;18.876;2024-01-27T22:30:26;100400.81;;;3.25;76.86
82949;BME280;72736;50.236;18.876;2024-01-27T22:35:32;100404.31;;;3.27;76.85
82949;BME280;72736;50.236;18.876;2024-01-27T22:40:41;100400.23;;;3.30;77.38
82949;BME280;72736;50.236;18.876;2024-01-27T22:45:46;100407.20;;;3.31;77.18
82949;BME280;72736;50.236;18.876;2024-01-27T22:50:53;100407.91;;;3.33;76.79
82949;BME280;72736;50.236;18.876;2024-01-27T22:56:00;100412.70;;;3.35;77.02
82949;BME280;72736;50.236;18.876;2024-01-27T23:01:06;100417.01;;;3.34;77.17
82949;BME280;72736;50.236;18.876;2024-01-27T23:06:14;100424.95;;;3.34;77.19
82949;BME280;72736;50.236;18.876;2024-01-27T23:11:19;100428.44;;;3.35;77.29
82949;BME280;72736;50.236;18.876;2024-01-27T23:16:25;100435.79;;;3.35;77.24
82949;BME280;72736;50.236;18.876;2024-01-27T23:21:32;100427.50;;;3.35;77.47
82949;BME280;72736;50.236;18.876;2024-01-27T23:26:38;100425.10;;;3.36;77.33
82949;BME280;72736;50.236;18.876;2024-01-27T23:31:43;100421.02;;;3.37;77.63
82949;BME280;72736;50.236;18.876;2024-01-27T23:36:49;100417.58;;;3.38;77.49
82949;BME280;72736;50.236;18.876;2024-01-27T23:41:55;100416.76;;;3.40;77.61
82949;BME280;72736;50.236;18.876;2024-01-27T23:47:00;100425.98;;;3.41;77.80
82949;BME280;72736;50.236;18.876;2024-01-27T23:52:07;100432.77;;;3.42;77.95
82949;BME280;72736;50.236;18.876;2024-01-27T23:57:16;100433.69;;;3.42;78.37
